createdAt,value
2019-06-01T00:00:11.683Z,95.00
2019-06-01T00:02:38.585Z,95.20
2019-06-01T00:05:07.709Z,95.30
2019-06-01T00:07:36.435Z,95.00
2019-06-01T00:10:09.076Z,95.00
2019-06-01T00:12:37.799Z,95.10
2019-06-01T00:15:08.415Z,95.20
2019-06-01T00:17:37.147Z,95.00
2019-06-01T00:20:06.869Z,94.90
2019-06-01T00:22:35.609Z,95.20
2019-06-01T00:25:06.120Z,94.70
2019-06-01T00:27:34.995Z,94.50
2019-06-01T00:30:04.717Z,94.50
2019-06-01T00:32:33.436Z,94.60
2019-06-01T00:35:02.176Z,94.50
2019-06-01T00:37:30.891Z,94.40
2019-06-01T00:39:59.619Z,94.50
2019-06-01T00:42:28.316Z,94.50
2019-06-01T00:44:56.920Z,94.60
2019-06-01T00:47:25.639Z,94.40
2019-06-01T00:49:54.220Z,94.50
2019-06-01T00:52:22.944Z,94.40
2019-06-01T00:54:51.801Z,94.50
2019-06-01T00:57:22.229Z,94.60
2019-06-01T00:59:53.105Z,94.60
2019-06-01T01:02:21.150Z,94.40
2019-06-01T01:04:58.852Z,94.40
2019-06-01T01:07:27.574Z,94.60
2019-06-01T01:09:56.296Z,94.70
2019-06-01T01:12:25.025Z,94.70
2019-06-01T01:14:53.608Z,94.80
2019-06-01T01:17:22.252Z,94.70
2019-06-01T01:19:51.949Z,94.80
2019-06-01T01:22:20.632Z,94.80
2019-06-01T01:24:50.402Z,94.60
2019-06-01T01:27:19.204Z,94.60
2019-06-01T01:29:48.989Z,94.70
2019-06-01T01:32:18.177Z,94.60
2019-06-01T01:34:47.408Z,94.60
2019-06-01T01:37:16.152Z,94.40
2019-06-01T01:39:44.812Z,94.60
2019-06-01T01:42:13.395Z,94.50
2019-06-01T01:44:42.237Z,94.60
2019-06-01T01:47:13.862Z,94.70
2019-06-01T01:49:41.487Z,94.80
2019-06-01T01:52:10.210Z,94.90
2019-06-01T01:54:38.872Z,94.80
2019-06-01T01:57:07.587Z,94.70
2019-06-01T01:59:36.316Z,94.70
2019-06-01T02:02:05.240Z,94.60
2019-06-01T02:04:33.949Z,94.50
2019-06-01T02:07:02.664Z,94.70
2019-06-01T02:09:31.375Z,94.50
2019-06-01T02:12:00.101Z,94.50
2019-06-01T02:14:28.826Z,94.60
2019-06-01T02:16:58.102Z,94.60
2019-06-01T02:19:27.050Z,94.50
2019-06-01T02:21:56.461Z,94.60
2019-06-01T02:24:25.172Z,94.50
2019-06-01T02:26:55.114Z,94.80
2019-06-01T02:29:24.236Z,95.00
2019-06-01T02:31:52.922Z,95.10
2019-06-01T02:34:21.650Z,95.00
2019-06-01T02:36:50.366Z,95.00
2019-06-01T02:39:19.089Z,95.10
2019-06-01T02:41:47.811Z,95.00
2019-06-01T02:44:16.542Z,95.10
2019-06-01T02:46:45.182Z,95.10
2019-06-01T02:49:13.933Z,95.10
2019-06-01T02:51:42.655Z,95.00
2019-06-01T02:54:11.393Z,95.10
2019-06-01T02:56:40.155Z,95.10
2019-06-01T02:59:08.880Z,94.90
2019-06-01T03:01:38.576Z,94.90
2019-06-01T03:04:09.600Z,95.10
2019-06-01T03:06:41.076Z,95.10
2019-06-01T03:09:10.311Z,94.90
2019-06-01T03:11:40.224Z,94.90
2019-06-01T03:14:11.210Z,94.90
2019-06-01T03:16:41.624Z,94.80
2019-06-01T03:19:12.107Z,94.60
2019-06-01T03:21:44.059Z,94.30
2019-06-01T03:24:13.483Z,94.30
2019-06-01T03:26:44.945Z,94.30
2019-06-01T03:29:16.744Z,94.60
2019-06-01T03:31:46.086Z,94.80
2019-06-01T03:34:15.009Z,94.80
2019-06-01T03:36:44.324Z,94.20
2019-06-01T03:39:13.206Z,94.40
2019-06-01T03:41:42.697Z,94.00
2019-06-01T03:44:13.132Z,94.00
2019-06-01T03:46:41.717Z,94.10
2019-06-01T03:49:10.439Z,94.20
2019-06-01T03:51:39.151Z,93.90
2019-06-01T03:54:08.570Z,94.10
2019-06-01T03:56:38.478Z,94.60
2019-06-01T03:59:07.330Z,93.70
2019-06-01T04:01:36.320Z,94.20
2019-06-01T04:04:05.542Z,93.50
2019-06-01T04:06:34.184Z,93.90
2019-06-01T04:09:03.541Z,93.00
2019-06-01T04:11:32.491Z,93.30
2019-06-01T04:14:01.527Z,93.70
2019-06-01T04:16:30.435Z,93.60
2019-06-01T04:18:59.186Z,93.60
2019-06-01T04:21:27.834Z,93.80
2019-06-01T04:23:56.412Z,94.00
2019-06-01T04:26:25.064Z,93.90
2019-06-01T04:28:53.705Z,93.20
2019-06-01T04:31:22.435Z,93.40
2019-06-01T04:33:51.083Z,93.50
2019-06-01T04:36:19.804Z,93.10
2019-06-01T04:38:48.849Z,93.10
2019-06-01T04:41:17.507Z,93.10
2019-06-01T04:43:46.297Z,93.30
2019-06-01T04:46:15.075Z,92.80
2019-06-01T04:48:43.824Z,92.30
2019-06-01T04:51:13.503Z,92.30
2019-06-01T04:53:42.287Z,93.20
2019-06-01T04:56:11.160Z,92.80
2019-06-01T04:58:39.941Z,92.10
2019-06-01T05:01:08.955Z,91.40
2019-06-01T05:03:37.980Z,91.80
2019-06-01T05:06:07.217Z,91.20
2019-06-01T05:08:36.119Z,90.80
2019-06-01T05:11:06.879Z,91.60
2019-06-01T05:13:35.331Z,91.10
2019-06-01T05:16:04.343Z,90.80
2019-06-01T05:18:33.128Z,90.40
2019-06-01T05:21:01.852Z,88.60
2019-06-01T05:23:30.571Z,89.60
2019-06-01T05:25:59.177Z,86.70
2019-06-01T05:28:27.824Z,85.90
2019-06-01T05:30:56.533Z,87.60
2019-06-01T05:33:37.049Z,88.80
2019-06-01T05:35:55.480Z,90.10
2019-06-01T05:38:24.260Z,90.30
2019-06-01T05:40:52.984Z,87.50
2019-06-01T05:43:21.633Z,89.80
2019-06-01T05:45:50.343Z,86.80
2019-06-01T05:48:24.782Z,86.00
2019-06-01T05:50:49.571Z,85.10
2019-06-01T05:53:19.965Z,85.70
2019-06-01T05:55:48.597Z,84.50
2019-06-01T05:58:17.381Z,77.80
2019-06-01T06:00:46.490Z,75.00
2019-06-01T06:03:19.031Z,77.30
2019-06-01T06:05:45.428Z,76.80
2019-06-01T06:08:14.486Z,77.80
2019-06-01T06:10:43.572Z,77.60
2019-06-01T06:13:13.319Z,76.40
2019-06-01T06:15:42.051Z,74.90
2019-06-01T06:18:11.648Z,73.30
2019-06-01T06:20:40.645Z,70.10
2019-06-01T06:23:09.560Z,71.50
2019-06-01T06:25:40.061Z,69.10
2019-06-01T06:28:08.581Z,71.60
2019-06-01T06:30:37.261Z,72.60
2019-06-01T06:33:05.912Z,73.90
2019-06-01T06:35:34.627Z,72.00
2019-06-01T06:38:03.282Z,74.20
2019-06-01T06:40:32.026Z,74.40
2019-06-01T06:43:00.760Z,74.90
2019-06-01T06:45:29.476Z,76.20
2019-06-01T06:47:58.123Z,73.00
2019-06-01T06:50:26.847Z,76.50
2019-06-01T06:52:55.565Z,79.00
2019-06-01T06:55:24.263Z,80.50
2019-06-01T06:57:52.975Z,80.60
2019-06-01T07:00:22.595Z,82.20
2019-06-01T07:02:51.415Z,79.10
2019-06-01T07:05:21.261Z,80.30
2019-06-01T07:07:50.084Z,80.40
2019-06-01T07:10:19.985Z,81.80
2019-06-01T07:12:48.937Z,81.40
2019-06-01T07:15:17.707Z,80.80
2019-06-01T07:17:46.428Z,81.30
2019-06-01T07:20:15.451Z,83.20
2019-06-01T07:22:44.173Z,82.00
2019-06-01T07:25:12.884Z,83.40
2019-06-01T07:27:41.595Z,80.30
2019-06-01T07:30:11.132Z,80.90
2019-06-01T07:32:39.832Z,82.30
2019-06-01T07:35:08.689Z,79.70
2019-06-01T07:37:37.333Z,78.40
2019-06-01T07:40:07.164Z,78.40
2019-06-01T07:42:35.904Z,79.30
2019-06-01T07:45:06.425Z,79.20
2019-06-01T07:47:35.105Z,78.40
2019-06-01T07:50:05.905Z,77.20
2019-06-01T07:52:34.628Z,76.90
2019-06-01T07:55:03.869Z,77.50
2019-06-01T07:57:32.588Z,74.40
2019-06-01T08:00:01.344Z,75.50
2019-06-01T08:02:30.820Z,75.70
2019-06-01T08:04:59.604Z,77.20
2019-06-01T08:07:29.232Z,77.10
2019-06-01T08:09:58.262Z,78.30
2019-06-01T08:12:27.515Z,77.30
2019-06-01T08:14:56.385Z,80.00
2019-06-01T08:17:25.976Z,77.60
2019-06-01T08:19:54.744Z,76.70
2019-06-01T08:22:23.888Z,77.70
2019-06-01T08:24:52.780Z,76.80
2019-06-01T08:27:22.410Z,73.80
2019-06-01T08:29:51.280Z,75.10
2019-06-01T08:32:19.927Z,75.00
2019-06-01T08:34:48.607Z,75.90
2019-06-01T08:37:17.320Z,72.80
2019-06-01T08:39:45.899Z,71.10
2019-06-01T08:42:14.658Z,72.70
2019-06-01T08:44:43.320Z,72.50
2019-06-01T08:47:12.435Z,73.70
2019-06-01T08:49:41.196Z,72.30
2019-06-01T08:52:10.003Z,70.80
2019-06-01T08:54:38.703Z,70.20
2019-06-01T08:57:07.425Z,70.40
2019-06-01T08:59:36.212Z,70.80
2019-06-01T09:02:04.932Z,69.70
2019-06-01T09:04:34.840Z,70.20
2019-06-01T09:07:03.748Z,65.50
2019-06-01T09:09:33.130Z,69.40
2019-06-01T09:12:02.024Z,67.90
2019-06-01T09:14:31.352Z,62.60
2019-06-01T09:17:00.184Z,63.30
2019-06-01T09:19:29.438Z,66.60
2019-06-01T09:21:58.373Z,65.60
2019-06-01T09:24:27.686Z,67.30
2019-06-01T09:26:56.648Z,66.10
2019-06-01T09:29:25.833Z,62.20
2019-06-01T09:31:54.744Z,62.80
2019-06-01T09:34:23.409Z,63.70
2019-06-01T09:36:55.417Z,62.90
2019-06-01T09:39:22.411Z,64.70
2019-06-01T09:41:50.992Z,66.30
2019-06-01T09:44:19.712Z,65.90
2019-06-01T09:46:48.362Z,63.00
2019-06-01T09:49:17.080Z,63.30
2019-06-01T09:51:45.808Z,64.80
2019-06-01T09:54:14.524Z,61.40
2019-06-01T09:56:43.244Z,60.50
2019-06-01T09:59:11.904Z,62.40
2019-06-01T10:01:40.616Z,62.30
2019-06-01T10:04:09.438Z,62.50
2019-06-01T10:06:38.727Z,62.10
2019-06-01T10:09:09.128Z,62.60
2019-06-01T10:11:38.136Z,63.30
2019-06-01T10:14:06.996Z,63.20
2019-06-01T10:16:36.778Z,63.10
2019-06-01T10:19:05.756Z,58.60
2019-06-01T10:21:34.403Z,57.60
2019-06-01T10:24:03.084Z,58.20
2019-06-01T10:26:31.636Z,60.00
2019-06-01T10:29:00.284Z,59.50
2019-06-01T10:31:29.016Z,59.30
2019-06-01T10:33:57.813Z,59.30
2019-06-01T10:36:26.752Z,60.50
2019-06-01T10:38:55.407Z,59.80
2019-06-01T10:41:24.126Z,56.60
2019-06-01T10:43:52.705Z,59.10
2019-06-01T10:46:21.348Z,57.80
2019-06-01T10:48:50.004Z,58.30
2019-06-01T10:51:18.733Z,56.60
2019-06-01T10:53:47.680Z,57.10
2019-06-01T10:56:16.401Z,59.00
2019-06-01T10:58:59.257Z,55.20
2019-06-01T11:01:15.430Z,54.70
2019-06-01T11:03:44.067Z,56.90
2019-06-01T11:06:12.783Z,59.60
2019-06-01T11:08:41.508Z,57.60
2019-06-01T11:11:10.162Z,54.50
2019-06-01T11:13:39.052Z,54.60
2019-06-01T11:16:08.051Z,54.80
2019-06-01T11:18:37.489Z,53.50
2019-06-01T11:21:06.393Z,52.10
2019-06-01T11:23:35.548Z,52.90
2019-06-01T11:26:04.551Z,54.00
2019-06-01T11:28:33.843Z,55.10
2019-06-01T11:31:02.687Z,53.50
2019-06-01T11:33:31.414Z,54.40
2019-06-01T11:36:00.124Z,54.20
2019-06-01T11:38:28.864Z,54.70
2019-06-01T11:40:57.509Z,55.90
2019-06-01T11:43:26.308Z,57.20
2019-06-01T11:45:55.026Z,54.60
2019-06-01T11:48:23.745Z,52.30
2019-06-01T11:50:52.396Z,52.00
2019-06-01T11:53:21.113Z,53.90
2019-06-01T11:55:49.912Z,53.10
2019-06-01T11:58:18.587Z,52.40
2019-06-01T12:00:47.216Z,53.70
2019-06-01T12:03:15.951Z,53.00
2019-06-01T12:05:44.592Z,53.60
2019-06-01T12:08:13.309Z,55.20
2019-06-01T12:10:43.140Z,54.30
2019-06-01T12:13:12.108Z,48.90
2019-06-01T12:15:40.760Z,47.00
2019-06-01T12:18:09.494Z,48.60
2019-06-01T12:20:38.626Z,50.50
2019-06-01T12:23:07.515Z,52.50
2019-06-01T12:25:36.175Z,49.00
2019-06-01T12:28:04.891Z,48.80
2019-06-01T12:30:33.690Z,50.50
2019-06-01T12:33:02.426Z,52.00
2019-06-01T12:35:31.208Z,54.00
2019-06-01T12:38:06.545Z,54.10
2019-06-01T12:40:30.154Z,54.20
2019-06-01T12:42:58.808Z,52.50
2019-06-01T12:45:27.520Z,52.40
2019-06-01T12:47:58.618Z,53.00
2019-06-01T12:50:26.631Z,55.00
2019-06-01T12:52:55.380Z,53.00
2019-06-01T12:55:24.214Z,53.10
2019-06-01T12:57:52.859Z,52.60
2019-06-01T13:00:22.280Z,52.40
2019-06-01T13:03:01.765Z,50.70
2019-06-01T13:05:21.483Z,52.00
2019-06-01T13:07:59.754Z,51.70
2019-06-01T13:10:20.610Z,51.60
2019-06-01T13:12:49.460Z,51.60
2019-06-01T13:15:18.806Z,51.30
2019-06-01T13:17:47.457Z,51.10
2019-06-01T13:20:16.672Z,52.00
2019-06-01T13:22:45.632Z,50.00
2019-06-01T13:25:15.108Z,51.90
2019-06-01T13:27:44.222Z,52.90
2019-06-01T13:30:13.382Z,51.60
2019-06-01T13:32:42.423Z,52.40
2019-06-01T13:35:11.288Z,52.00
2019-06-01T13:37:39.969Z,51.60
2019-06-01T13:40:09.479Z,52.30
2019-06-01T13:42:38.505Z,52.70
2019-06-01T13:45:08.438Z,53.00
2019-06-01T13:47:37.162Z,53.50
2019-06-01T13:50:07.368Z,54.50
2019-06-01T13:52:36.092Z,54.60
2019-06-01T13:55:06.609Z,54.70
2019-06-01T13:57:38.583Z,53.80
2019-06-01T14:00:08.032Z,55.90
2019-06-01T14:02:36.749Z,55.60
2019-06-01T14:05:09.138Z,56.10
2019-06-01T14:07:38.247Z,55.70
2019-06-01T14:10:08.282Z,56.50
2019-06-01T14:12:36.932Z,57.60
2019-06-01T14:15:07.660Z,57.90
2019-06-01T14:17:36.579Z,56.30
2019-06-01T14:20:06.960Z,55.50
2019-06-01T14:22:35.622Z,56.60
2019-06-01T14:25:14.259Z,55.90
2019-06-01T14:27:39.005Z,55.70
2019-06-01T14:30:08.459Z,55.90
2019-06-01T14:32:37.503Z,56.20
2019-06-01T14:35:07.342Z,55.90
2019-06-01T14:37:36.044Z,55.60
2019-06-01T14:40:06.538Z,55.80
2019-06-01T14:42:35.252Z,55.60
2019-06-01T14:45:08.239Z,54.70
2019-06-01T14:47:36.948Z,54.40
2019-06-01T14:50:07.776Z,54.00
2019-06-01T14:52:36.780Z,50.20
2019-06-01T14:55:09.452Z,47.10
2019-06-01T14:57:38.170Z,43.60
2019-06-01T15:00:11.458Z,40.60
2019-06-01T15:02:40.210Z,35.10
2019-06-01T15:05:10.020Z,37.80
2019-06-01T15:07:38.668Z,41.50
2019-06-01T15:10:08.903Z,43.20
2019-06-01T15:12:37.615Z,44.90
2019-06-01T15:15:09.930Z,46.60
2019-06-01T15:17:38.743Z,47.50
2019-06-01T15:20:08.868Z,48.70
2019-06-01T15:22:38.159Z,47.00
2019-06-01T15:25:07.783Z,47.60
2019-06-01T15:27:36.496Z,48.40
2019-06-01T15:30:10.128Z,47.80
2019-06-01T15:32:38.848Z,47.50
2019-06-01T15:35:08.374Z,48.10
2019-06-01T15:37:37.013Z,47.90
2019-06-01T15:40:07.532Z,48.40
2019-06-01T15:42:36.215Z,48.00
2019-06-01T15:45:08.742Z,49.20
2019-06-01T15:47:37.471Z,49.00
2019-06-01T15:50:08.792Z,50.90
2019-06-01T15:52:38.046Z,50.40
2019-06-01T15:55:08.639Z,50.00
2019-06-01T15:57:37.351Z,50.10
2019-06-01T16:00:10.226Z,49.50
2019-06-01T16:02:39.172Z,49.00
2019-06-01T16:05:08.591Z,48.90
2019-06-01T16:07:37.234Z,49.20
2019-06-01T16:10:10.238Z,50.00
2019-06-01T16:12:38.961Z,50.80
2019-06-01T16:15:09.484Z,51.10
2019-06-01T16:17:38.204Z,51.30
2019-06-01T16:20:08.627Z,51.10
2019-06-01T16:22:37.346Z,51.60
2019-06-01T16:25:07.830Z,53.00
2019-06-01T16:27:36.552Z,52.20
2019-06-01T16:30:08.205Z,52.10
2019-06-01T16:32:39.411Z,52.20
2019-06-01T16:35:07.687Z,53.80
2019-06-01T16:37:36.339Z,53.80
2019-06-01T16:40:10.579Z,53.90
2019-06-01T16:42:39.606Z,53.90
2019-06-01T16:45:09.915Z,54.20
2019-06-01T16:47:38.627Z,54.70
2019-06-01T16:50:08.858Z,55.20
2019-06-01T16:52:37.875Z,55.50
2019-06-01T16:55:07.836Z,55.40
2019-06-01T16:57:36.620Z,56.10
2019-06-01T17:00:08.508Z,56.60
2019-06-01T17:02:37.151Z,56.80
2019-06-01T17:05:07.128Z,57.40
2019-06-01T17:07:35.905Z,57.00
2019-06-01T17:10:21.663Z,57.60
2019-06-01T17:12:42.926Z,57.50
2019-06-01T17:15:09.823Z,57.90
2019-06-01T17:17:38.480Z,57.50
2019-06-01T17:20:09.167Z,57.20
2019-06-01T17:22:37.884Z,57.60
2019-06-01T17:25:07.995Z,57.50
2019-06-01T17:27:36.828Z,55.50
2019-06-01T17:30:09.918Z,55.70
2019-06-01T17:32:36.540Z,55.30
2019-06-01T17:35:07.030Z,56.00
2019-06-01T17:37:36.016Z,56.10
2019-06-01T17:40:06.837Z,56.10
2019-06-01T17:42:35.488Z,56.70
2019-06-01T17:45:07.782Z,56.40
2019-06-01T17:47:40.673Z,56.30
2019-06-01T17:50:07.567Z,56.30
2019-06-01T17:52:36.634Z,56.20
2019-06-01T17:55:07.021Z,56.80
2019-06-01T17:57:36.162Z,56.90
2019-06-01T18:00:07.675Z,56.70
2019-06-01T18:02:36.463Z,56.00
2019-06-01T18:05:08.136Z,55.70
2019-06-01T18:07:37.236Z,55.20
2019-06-01T18:10:08.267Z,54.50
2019-06-01T18:12:37.081Z,54.50
2019-06-01T18:15:08.832Z,54.50
2019-06-01T18:17:37.624Z,54.30
2019-06-01T18:20:08.843Z,56.00
2019-06-01T18:22:37.852Z,54.40
2019-06-01T18:25:08.646Z,54.70
2019-06-01T18:27:37.788Z,54.10
2019-06-01T18:30:11.044Z,53.50
2019-06-01T18:32:39.751Z,53.70
2019-06-01T18:35:09.356Z,54.20
2019-06-01T18:37:38.331Z,54.20
2019-06-01T18:40:11.905Z,54.30
2019-06-01T18:42:41.277Z,54.60
2019-06-01T18:45:11.794Z,54.30
2019-06-01T18:47:41.112Z,54.30
2019-06-01T18:50:14.632Z,54.10
2019-06-01T18:52:40.999Z,54.40
2019-06-01T18:55:10.669Z,55.10
2019-06-01T18:57:41.963Z,54.90
2019-06-01T19:00:15.298Z,55.00
2019-06-01T19:02:43.647Z,54.60
2019-06-01T19:05:13.202Z,55.80
2019-06-01T19:07:42.282Z,55.30
2019-06-01T19:10:12.575Z,55.00
2019-06-01T19:12:42.104Z,55.60
2019-06-01T19:15:25.137Z,55.70
2019-06-01T19:17:42.005Z,55.90
2019-06-01T19:20:11.188Z,55.70
2019-06-01T19:22:39.940Z,56.70
2019-06-01T19:25:09.056Z,56.60
2019-06-01T19:27:37.775Z,56.90
2019-06-01T19:30:08.859Z,56.60
2019-06-01T19:32:38.217Z,56.80
2019-06-01T19:35:07.644Z,57.50
2019-06-01T19:37:38.918Z,57.10
2019-06-01T19:40:09.338Z,57.50
2019-06-01T19:42:38.096Z,57.00
2019-06-01T19:45:23.646Z,57.00
2019-06-01T19:47:39.398Z,57.00
2019-06-01T19:50:08.724Z,56.70
2019-06-01T19:52:37.448Z,56.70
2019-06-01T19:55:07.172Z,58.10
2019-06-01T19:57:35.886Z,57.00
2019-06-01T20:00:07.565Z,57.20
2019-06-01T20:02:36.354Z,57.10
2019-06-01T20:05:06.074Z,57.10
2019-06-01T20:07:34.888Z,57.40
2019-06-01T20:10:06.721Z,57.40
2019-06-01T20:12:35.435Z,58.10
2019-06-01T20:15:06.248Z,58.30
2019-06-01T20:17:34.823Z,58.50
2019-06-01T20:20:05.004Z,59.10
2019-06-01T20:22:33.730Z,59.50
2019-06-01T20:25:02.439Z,59.40
2019-06-01T20:27:31.159Z,60.60
2019-06-01T20:29:59.879Z,60.70
2019-06-01T20:32:28.524Z,60.90
2019-06-01T20:34:57.175Z,60.50
2019-06-01T20:37:25.751Z,60.40
2019-06-01T20:39:54.675Z,62.10
2019-06-01T20:42:32.146Z,60.80
2019-06-01T20:44:53.770Z,61.50
2019-06-01T20:47:22.883Z,61.40
2019-06-01T20:49:51.771Z,61.00
2019-06-01T20:52:21.288Z,60.90
2019-06-01T20:54:49.939Z,60.70
2019-06-01T20:57:19.637Z,61.40
2019-06-01T20:59:48.515Z,62.50
2019-06-01T21:02:17.800Z,62.50
2019-06-01T21:04:46.855Z,63.10
2019-06-01T21:07:15.798Z,62.40
2019-06-01T21:09:44.516Z,62.80
2019-06-01T21:12:13.880Z,63.50
2019-06-01T21:14:42.783Z,64.60
2019-06-01T21:17:11.508Z,64.70
2019-06-01T21:19:40.381Z,64.70
2019-06-01T21:22:09.100Z,65.00
2019-06-01T21:24:37.812Z,65.10
2019-06-01T21:27:06.469Z,66.20
2019-06-01T21:29:35.183Z,66.40
2019-06-01T21:32:03.859Z,66.90
2019-06-01T21:34:32.504Z,67.90
2019-06-01T21:37:01.216Z,68.20
2019-06-01T21:39:29.939Z,68.00
2019-06-01T21:41:58.654Z,68.40
2019-06-01T21:44:27.332Z,68.60
2019-06-01T21:46:56.043Z,69.40
2019-06-01T21:49:25.875Z,69.40
2019-06-01T21:51:54.912Z,69.70
2019-06-01T21:54:24.630Z,70.30
2019-06-01T21:56:53.559Z,70.80
2019-06-01T21:59:22.763Z,70.80
2019-06-01T22:01:51.488Z,71.50
2019-06-01T22:04:20.786Z,72.10
2019-06-01T22:06:49.765Z,72.50
2019-06-01T22:09:19.132Z,73.30
2019-06-01T22:11:48.110Z,73.60
2019-06-01T22:14:17.374Z,73.70
2019-06-01T22:16:46.431Z,74.30
2019-06-01T22:19:15.180Z,74.40
2019-06-01T22:21:43.786Z,75.00
2019-06-01T22:24:12.432Z,75.60
2019-06-01T22:26:41.013Z,76.10
2019-06-01T22:29:09.729Z,76.70
2019-06-01T22:31:38.376Z,77.10
2019-06-01T22:34:07.094Z,77.10
2019-06-01T22:36:35.811Z,78.10
2019-06-01T22:39:06.527Z,78.00
2019-06-01T22:41:35.279Z,78.40
2019-06-01T22:44:04.300Z,78.60
2019-06-01T22:46:33.168Z,79.20
2019-06-01T22:49:01.834Z,79.50
2019-06-01T22:51:30.539Z,79.70
2019-06-01T22:53:59.261Z,80.00
2019-06-01T22:56:27.907Z,79.90
2019-06-01T22:58:56.562Z,80.40
2019-06-01T23:01:26.708Z,80.70
2019-06-01T23:03:55.698Z,80.60
2019-06-01T23:06:24.983Z,80.70
2019-06-01T23:08:53.961Z,81.50
2019-06-01T23:11:23.229Z,81.70
2019-06-01T23:13:53.784Z,82.20
2019-06-01T23:16:23.369Z,82.30
2019-06-01T23:18:52.374Z,82.30
2019-06-01T23:21:21.820Z,82.60
2019-06-01T23:23:50.697Z,82.40
2019-06-01T23:26:19.340Z,82.70
2019-06-01T23:28:48.113Z,82.80
2019-06-01T23:31:16.835Z,83.20
2019-06-01T23:33:45.579Z,83.30
2019-06-01T23:36:14.224Z,83.70
2019-06-01T23:38:42.943Z,83.70
2019-06-01T23:41:11.663Z,83.70
2019-06-01T23:43:40.384Z,84.10
2019-06-01T23:46:09.036Z,84.10
2019-06-01T23:48:37.755Z,84.30
2019-06-01T23:51:06.407Z,84.40
2019-06-01T23:53:35.059Z,84.80
2019-06-01T23:56:03.813Z,84.70
2019-06-01T23:58:32.642Z,84.90
